createdAt,value
2019-02-20T00:00:04.926Z,0.00
2019-02-20T00:01:04.909Z,0.00
2019-02-20T00:02:04.896Z,0.00
2019-02-20T00:03:04.904Z,0.00
2019-02-20T00:04:04.876Z,0.00
2019-02-20T00:05:04.879Z,0.00
2019-02-20T00:06:04.868Z,0.00
2019-02-20T00:07:04.834Z,0.00
2019-02-20T00:08:04.901Z,0.00
2019-02-20T00:09:04.809Z,0.00
2019-02-20T00:10:04.800Z,0.00
2019-02-20T00:11:04.812Z,0.00
2019-02-20T00:12:04.809Z,0.00
2019-02-20T00:13:04.811Z,0.00
2019-02-20T00:14:04.777Z,0.00
2019-02-20T00:15:04.742Z,0.00
2019-02-20T00:16:04.737Z,0.00
2019-02-20T00:17:04.724Z,0.00
2019-02-20T00:18:04.721Z,0.00
2019-02-20T00:19:04.739Z,0.00
2019-02-20T00:20:04.692Z,0.00
2019-02-20T00:21:04.683Z,0.00
2019-02-20T00:22:04.695Z,0.00
2019-02-20T00:23:04.693Z,0.00
2019-02-20T00:24:04.708Z,0.00
2019-02-20T00:25:04.657Z,0.00
2019-02-20T00:26:04.628Z,0.00
2019-02-20T00:27:04.635Z,0.00
2019-02-20T00:28:04.657Z,0.00
2019-02-20T00:29:04.591Z,0.00
2019-02-20T00:30:04.644Z,0.00
2019-02-20T00:31:04.595Z,0.00
2019-02-20T00:32:04.577Z,0.00
2019-02-20T00:33:04.548Z,0.00
2019-02-20T00:34:04.558Z,0.00
2019-02-20T00:35:04.528Z,0.00
2019-02-20T00:36:04.542Z,0.00
2019-02-20T00:37:04.521Z,0.00
2019-02-20T00:38:04.510Z,0.00
2019-02-20T00:39:04.507Z,0.00
2019-02-20T00:40:04.471Z,0.00
2019-02-20T00:41:04.482Z,0.00
2019-02-20T00:42:04.468Z,0.00
2019-02-20T00:43:04.463Z,0.00
2019-02-20T00:44:04.449Z,0.00
2019-02-20T00:45:04.430Z,0.00
2019-02-20T00:46:04.437Z,0.00
2019-02-20T00:47:04.418Z,0.00
2019-02-20T00:48:04.394Z,0.00
2019-02-20T00:49:04.412Z,0.00
2019-02-20T00:50:04.359Z,0.00
2019-02-20T00:51:04.404Z,0.00
2019-02-20T00:52:04.347Z,0.00
2019-02-20T00:53:04.324Z,0.00
2019-02-20T00:54:04.323Z,0.00
2019-02-20T00:55:04.399Z,0.00
2019-02-20T00:56:04.299Z,0.00
2019-02-20T00:57:04.315Z,0.00
2019-02-20T00:58:04.282Z,0.00
2019-02-20T00:59:04.279Z,0.00
2019-02-20T01:00:04.266Z,0.00
2019-02-20T01:01:04.259Z,0.00
2019-02-20T01:02:04.274Z,0.00
2019-02-20T01:03:04.223Z,0.00
2019-02-20T01:04:04.208Z,0.00
2019-02-20T01:05:04.201Z,0.00
2019-02-20T01:06:05.014Z,0.00
2019-02-20T01:07:04.653Z,0.00
2019-02-20T01:08:04.157Z,0.00
2019-02-20T01:09:04.149Z,0.00
2019-02-20T01:10:04.162Z,0.00
2019-02-20T01:11:04.132Z,0.00
2019-02-20T01:12:04.157Z,0.00
2019-02-20T01:13:04.131Z,0.00
2019-02-20T01:14:04.088Z,0.00
2019-02-20T01:15:04.091Z,0.00
2019-02-20T01:16:04.078Z,0.00
2019-02-20T01:17:04.092Z,0.00
2019-02-20T01:18:04.086Z,0.00
2019-02-20T01:19:04.038Z,0.00
2019-02-20T01:20:04.032Z,0.00
2019-02-20T01:21:04.117Z,0.00
2019-02-20T01:22:04.026Z,0.00
2019-02-20T01:23:04.046Z,0.00
2019-02-20T01:24:03.997Z,0.00
2019-02-20T01:25:03.976Z,0.00
2019-02-20T01:26:03.960Z,0.00
2019-02-20T01:27:03.963Z,0.00
2019-02-20T01:28:03.960Z,0.00
2019-02-20T01:29:03.966Z,0.00
2019-02-20T01:30:03.948Z,0.00
2019-02-20T01:31:03.922Z,0.00
2019-02-20T01:32:03.929Z,0.00
2019-02-20T01:33:03.881Z,0.00
2019-02-20T01:34:03.931Z,0.00
2019-02-20T01:35:03.889Z,0.00
2019-02-20T01:36:03.866Z,0.00
2019-02-20T01:37:03.838Z,0.00
2019-02-20T01:38:03.829Z,0.00
2019-02-20T01:39:03.859Z,0.00
2019-02-20T01:40:03.857Z,0.00
2019-02-20T01:41:03.793Z,0.00
2019-02-20T01:42:03.787Z,0.00
2019-02-20T01:43:03.782Z,0.00
2019-02-20T01:44:03.881Z,0.00
2019-02-20T01:45:03.761Z,0.00
2019-02-20T01:46:03.740Z,0.00
2019-02-20T01:47:03.726Z,0.00
2019-02-20T01:48:03.784Z,0.00
2019-02-20T01:49:03.716Z,0.00
2019-02-20T01:50:03.723Z,0.00
2019-02-20T01:51:03.699Z,0.00
2019-02-20T01:52:03.687Z,0.00
2019-02-20T01:53:10.051Z,0.00
2019-02-20T01:54:04.729Z,0.00
2019-02-20T01:55:03.664Z,0.00
2019-02-20T01:56:03.650Z,0.00
2019-02-20T01:57:03.631Z,0.00
2019-02-20T01:58:03.604Z,0.00
2019-02-20T01:59:03.596Z,0.00
2019-02-20T02:00:03.636Z,0.00
2019-02-20T02:01:03.578Z,0.00
2019-02-20T02:02:03.595Z,0.00
2019-02-20T02:03:03.560Z,0.00
2019-02-20T02:04:03.540Z,0.00
2019-02-20T02:05:03.608Z,0.00
2019-02-20T02:06:03.586Z,0.00
2019-02-20T02:07:03.511Z,0.00
2019-02-20T02:08:03.504Z,0.00
2019-02-20T02:09:03.527Z,0.00
2019-02-20T02:10:03.472Z,0.00
2019-02-20T02:11:03.482Z,0.00
2019-02-20T02:12:03.458Z,0.00
2019-02-20T02:13:04.114Z,0.00
2019-02-20T02:14:03.439Z,0.00
2019-02-20T02:15:03.419Z,0.00
2019-02-20T02:16:03.440Z,0.00
2019-02-20T02:17:03.424Z,0.00
2019-02-20T02:18:03.402Z,0.00
2019-02-20T02:19:03.375Z,0.00
2019-02-20T02:20:03.360Z,0.00
2019-02-20T02:21:03.404Z,0.00
2019-02-20T02:22:03.362Z,0.00
2019-02-20T02:23:03.339Z,0.00
2019-02-20T02:24:03.325Z,0.00
2019-02-20T02:25:03.301Z,0.00
2019-02-20T02:26:10.683Z,0.00
2019-02-20T02:27:04.296Z,0.00
2019-02-20T02:28:03.283Z,0.00
2019-02-20T02:29:03.257Z,0.00
2019-02-20T02:30:03.262Z,0.00
2019-02-20T02:31:03.303Z,0.00
2019-02-20T02:32:03.238Z,0.00
2019-02-20T02:33:03.240Z,0.00
2019-02-20T02:34:03.215Z,0.00
2019-02-20T02:35:03.224Z,0.00
2019-02-20T02:36:03.190Z,0.00
2019-02-20T02:37:03.253Z,0.00
2019-02-20T02:38:03.163Z,0.00
2019-02-20T02:39:03.154Z,0.00
2019-02-20T02:40:03.143Z,0.00
2019-02-20T02:41:03.155Z,0.00
2019-02-20T02:42:03.243Z,0.00
2019-02-20T02:43:03.104Z,0.00
2019-02-20T02:44:03.102Z,0.00
2019-02-20T02:45:03.095Z,0.00
2019-02-20T02:46:03.081Z,0.00
2019-02-20T02:47:03.112Z,0.00
2019-02-20T02:48:03.057Z,0.00
2019-02-20T02:49:03.040Z,0.00
2019-02-20T02:50:03.041Z,0.00
2019-02-20T02:51:03.027Z,0.00
2019-02-20T02:52:03.003Z,0.00
2019-02-20T02:53:03.035Z,0.00
2019-02-20T02:54:02.981Z,0.00
2019-02-20T02:55:02.981Z,0.00
2019-02-20T02:56:02.985Z,0.00
2019-02-20T02:57:02.959Z,0.00
2019-02-20T02:58:02.978Z,0.00
2019-02-20T02:59:02.925Z,0.00
2019-02-20T03:00:02.937Z,0.00
2019-02-20T03:01:02.942Z,0.00
2019-02-20T03:02:02.925Z,0.00
2019-02-20T03:03:02.948Z,0.00
2019-02-20T03:04:02.882Z,0.00
2019-02-20T03:05:02.875Z,0.00
2019-02-20T03:06:02.846Z,0.00
2019-02-20T03:07:02.882Z,0.00
2019-02-20T03:08:02.862Z,0.00
2019-02-20T03:09:02.841Z,0.00
2019-02-20T03:10:02.810Z,0.00
2019-02-20T03:11:02.799Z,0.00
2019-02-20T03:12:02.783Z,0.00
2019-02-20T03:13:02.773Z,0.00
2019-02-20T03:14:02.793Z,0.00
2019-02-20T03:15:02.772Z,0.00
2019-02-20T03:16:02.743Z,0.00
2019-02-20T03:17:02.740Z,0.00
2019-02-20T03:18:02.743Z,0.00
2019-02-20T03:19:02.732Z,0.00
2019-02-20T03:20:02.697Z,0.00
2019-02-20T03:21:02.692Z,0.00
2019-02-20T03:22:02.682Z,0.00
2019-02-20T03:23:02.660Z,0.00
2019-02-20T03:24:02.693Z,0.00
2019-02-20T03:25:02.643Z,0.00
2019-02-20T03:26:02.671Z,0.00
2019-02-20T03:27:02.630Z,0.00
2019-02-20T03:28:02.603Z,0.00
2019-02-20T03:29:02.695Z,0.00
2019-02-20T03:30:02.581Z,0.00
2019-02-20T03:31:02.590Z,0.00
2019-02-20T03:32:02.605Z,0.00
2019-02-20T03:33:02.562Z,0.00
2019-02-20T03:34:02.548Z,0.00
2019-02-20T03:35:02.564Z,0.00
2019-02-20T03:36:02.547Z,0.00
2019-02-20T03:37:02.549Z,0.00
2019-02-20T03:38:02.527Z,0.00
2019-02-20T03:39:02.487Z,0.00
2019-02-20T03:40:02.731Z,0.00
2019-02-20T03:41:02.466Z,0.00
2019-02-20T03:42:02.470Z,0.00
2019-02-20T03:43:02.541Z,0.00
2019-02-20T03:44:02.427Z,0.00
2019-02-20T03:45:02.502Z,0.00
2019-02-20T03:46:02.405Z,0.00
2019-02-20T03:47:02.406Z,0.00
2019-02-20T03:48:02.406Z,0.00
2019-02-20T03:49:02.388Z,0.00
2019-02-20T03:50:02.403Z,0.00
2019-02-20T03:51:02.368Z,0.00
2019-02-20T03:52:02.356Z,0.00
2019-02-20T03:53:02.358Z,0.00
2019-02-20T03:54:02.321Z,0.00
2019-02-20T03:55:02.366Z,0.00
2019-02-20T03:56:02.308Z,0.00
2019-02-20T03:57:02.304Z,0.00
2019-02-20T03:58:02.298Z,0.00
2019-02-20T03:59:02.268Z,0.00
2019-02-20T04:00:02.298Z,0.00
2019-02-20T04:01:02.261Z,0.00
2019-02-20T04:02:02.243Z,0.00
2019-02-20T04:03:02.222Z,0.00
2019-02-20T04:04:02.257Z,0.00
2019-02-20T04:05:02.213Z,0.00
2019-02-20T04:06:02.216Z,0.00
2019-02-20T04:07:02.185Z,0.00
2019-02-20T04:08:02.186Z,0.00
2019-02-20T04:09:02.165Z,0.00
2019-02-20T04:10:02.164Z,0.00
2019-02-20T04:11:02.168Z,0.00
2019-02-20T04:12:02.169Z,0.00
2019-02-20T04:13:02.109Z,0.00
2019-02-20T04:14:02.109Z,0.00
2019-02-20T04:15:02.089Z,0.00
2019-02-20T04:16:02.076Z,0.00
2019-02-20T04:17:02.107Z,0.00
2019-02-20T04:18:02.067Z,0.00
2019-02-20T04:19:02.086Z,0.00
2019-02-20T04:20:02.062Z,0.00
2019-02-20T04:21:02.038Z,0.00
2019-02-20T04:22:02.083Z,0.00
2019-02-20T04:23:02.089Z,0.00
2019-02-20T04:24:03.049Z,0.00
2019-02-20T04:25:02.000Z,0.00
2019-02-20T04:26:02.012Z,0.00
2019-02-20T04:27:02.073Z,0.00
2019-02-20T04:28:01.946Z,0.00
2019-02-20T04:29:01.938Z,0.00
2019-02-20T04:30:01.945Z,0.00
2019-02-20T04:31:01.931Z,0.00
2019-02-20T04:32:01.913Z,0.00
2019-02-20T04:33:01.920Z,0.00
2019-02-20T04:34:01.872Z,0.00
2019-02-20T04:35:01.878Z,0.00
2019-02-20T04:36:01.872Z,0.00
2019-02-20T04:37:01.888Z,0.00
2019-02-20T04:38:01.851Z,0.00
2019-02-20T04:39:01.825Z,0.00
2019-02-20T04:40:01.815Z,0.00
2019-02-20T04:41:01.808Z,0.00
2019-02-20T04:42:02.660Z,16.00
2019-02-20T04:43:01.830Z,12.00
2019-02-20T04:44:01.821Z,16.00
2019-02-20T04:45:01.751Z,16.00
2019-02-20T04:46:01.738Z,16.00
2019-02-20T04:47:01.745Z,0.00
2019-02-20T04:48:01.793Z,0.00
2019-02-20T04:49:01.716Z,0.00
2019-02-20T04:50:01.731Z,0.00
2019-02-20T04:51:01.695Z,0.00
2019-02-20T04:52:01.702Z,0.00
2019-02-20T04:53:01.689Z,0.00
2019-02-20T04:54:01.719Z,0.00
2019-02-20T04:55:01.657Z,0.00
2019-02-20T04:56:01.645Z,0.00
2019-02-20T04:57:01.631Z,0.00
2019-02-20T04:58:01.607Z,0.00
2019-02-20T04:59:01.616Z,0.00
2019-02-20T05:00:01.617Z,0.00
2019-02-20T05:01:01.587Z,0.00
2019-02-20T05:02:01.572Z,0.00
2019-02-20T05:03:01.552Z,0.00
2019-02-20T05:04:01.567Z,0.00
2019-02-20T05:05:01.550Z,0.00
2019-02-20T05:06:01.543Z,0.00
2019-02-20T05:07:01.521Z,0.00
2019-02-20T05:08:01.529Z,0.00
2019-02-20T05:09:01.528Z,0.00
2019-02-20T05:10:01.483Z,0.00
2019-02-20T05:11:01.462Z,0.00
2019-02-20T05:12:01.503Z,0.00
2019-02-20T05:13:01.507Z,0.00
2019-02-20T05:14:01.462Z,0.00
2019-02-20T05:15:01.423Z,0.00
2019-02-20T05:16:01.403Z,0.00
2019-02-20T05:17:01.414Z,0.00
2019-02-20T05:18:01.387Z,0.00
2019-02-20T05:19:01.467Z,0.00
2019-02-20T05:20:01.378Z,0.00
2019-02-20T05:21:01.358Z,0.00
2019-02-20T05:22:01.351Z,0.00
2019-02-20T05:23:01.365Z,0.00
2019-02-20T05:24:01.310Z,0.00
2019-02-20T05:25:01.407Z,0.00
2019-02-20T05:26:01.350Z,0.00
2019-02-20T05:27:01.293Z,0.00
2019-02-20T05:28:01.286Z,0.00
2019-02-20T05:29:01.296Z,0.00
2019-02-20T05:30:01.259Z,0.00
2019-02-20T05:31:01.258Z,0.00
2019-02-20T05:32:01.255Z,0.00
2019-02-20T05:33:01.244Z,0.00
2019-02-20T05:34:01.220Z,0.00
2019-02-20T05:35:01.186Z,0.00
2019-02-20T05:36:01.207Z,0.00
2019-02-20T05:37:01.172Z,0.00
2019-02-20T05:38:01.196Z,0.00
2019-02-20T05:39:01.162Z,0.00
2019-02-20T05:40:01.136Z,0.00
2019-02-20T05:41:01.159Z,0.00
2019-02-20T05:42:01.127Z,0.00
2019-02-20T05:43:01.125Z,0.00
2019-02-20T05:44:01.097Z,0.00
2019-02-20T05:45:01.103Z,0.00
2019-02-20T05:46:01.124Z,0.00
2019-02-20T05:47:01.085Z,0.00
2019-02-20T05:48:01.078Z,0.00
2019-02-20T05:49:01.035Z,0.00
2019-02-20T05:50:01.054Z,0.00
2019-02-20T05:51:01.102Z,0.00
2019-02-20T05:52:01.036Z,0.00
2019-02-20T05:53:00.991Z,0.00
2019-02-20T05:54:01.030Z,0.00
2019-02-20T05:55:00.979Z,0.00
2019-02-20T05:56:00.952Z,0.00
2019-02-20T05:57:00.993Z,0.00
2019-02-20T05:58:00.941Z,0.00
2019-02-20T05:59:00.974Z,0.00
2019-02-20T06:00:00.915Z,0.00
2019-02-20T06:01:00.905Z,0.00
2019-02-20T06:02:00.959Z,0.00
2019-02-20T06:03:00.899Z,0.00
2019-02-20T06:04:00.909Z,0.00
2019-02-20T06:05:00.863Z,0.00
2019-02-20T06:06:00.865Z,0.00
2019-02-20T06:07:00.859Z,0.00
2019-02-20T06:08:00.825Z,0.00
2019-02-20T06:09:00.826Z,0.00
2019-02-20T06:10:00.801Z,0.00
2019-02-20T06:11:00.794Z,0.00
2019-02-20T06:12:00.818Z,0.00
2019-02-20T06:13:00.781Z,0.00
2019-02-20T06:14:00.751Z,0.00
2019-02-20T06:15:00.787Z,0.00
2019-02-20T06:16:00.759Z,0.00
2019-02-20T06:17:00.733Z,0.00
2019-02-20T06:18:00.754Z,0.00
2019-02-20T06:19:00.710Z,0.00
2019-02-20T06:20:00.697Z,0.00
2019-02-20T06:21:00.700Z,0.00
2019-02-20T06:22:00.672Z,0.00
2019-02-20T06:23:00.663Z,0.00
2019-02-20T06:24:00.710Z,0.00
2019-02-20T06:25:00.807Z,0.00
2019-02-20T06:26:00.672Z,0.00
2019-02-20T06:27:00.624Z,0.00
2019-02-20T06:28:00.622Z,0.00
2019-02-20T06:29:00.614Z,0.00
2019-02-20T06:30:00.580Z,0.00
2019-02-20T06:31:00.568Z,0.00
2019-02-20T06:32:00.581Z,0.00
2019-02-20T06:33:00.552Z,0.00
2019-02-20T06:34:00.574Z,0.00
2019-02-20T06:35:00.522Z,0.00
2019-02-20T06:36:00.515Z,0.00
2019-02-20T06:37:00.502Z,0.00
2019-02-20T06:38:00.532Z,0.00
2019-02-20T06:39:00.487Z,0.00
2019-02-20T06:40:00.501Z,0.00
2019-02-20T06:41:00.462Z,0.00
2019-02-20T06:42:00.453Z,0.00
2019-02-20T06:43:00.436Z,0.00
2019-02-20T06:44:00.424Z,0.00
2019-02-20T06:45:00.468Z,0.00
2019-02-20T06:46:00.399Z,0.00
2019-02-20T06:47:00.390Z,0.00
2019-02-20T06:48:00.381Z,0.00
2019-02-20T06:49:00.369Z,0.00
2019-02-20T06:50:01.355Z,0.00
2019-02-20T06:51:00.338Z,0.00
2019-02-20T06:52:00.335Z,0.00
2019-02-20T06:53:00.326Z,0.00
2019-02-20T06:54:00.329Z,0.00
2019-02-20T06:55:00.424Z,0.00
2019-02-20T06:56:00.300Z,0.00
2019-02-20T06:57:00.322Z,0.00
2019-02-20T06:58:00.267Z,0.00
2019-02-20T06:59:00.256Z,0.00
2019-02-20T07:00:00.459Z,0.00
2019-02-20T07:01:00.251Z,0.00
2019-02-20T07:02:00.230Z,128.00
2019-02-20T07:03:00.218Z,208.00
2019-02-20T07:04:00.210Z,272.00
2019-02-20T07:05:00.234Z,300.00
2019-02-20T07:06:00.223Z,308.00
2019-02-20T07:07:00.161Z,0.00
2019-02-20T07:08:00.157Z,0.00
2019-02-20T07:09:00.149Z,0.00
2019-02-20T07:10:00.327Z,0.00
2019-02-20T07:11:00.158Z,0.00
2019-02-20T07:12:00.117Z,0.00
2019-02-20T07:13:00.096Z,0.00
2019-02-20T07:14:00.086Z,0.00
2019-02-20T07:15:00.258Z,0.00
2019-02-20T07:16:00.100Z,0.00
2019-02-20T07:17:00.096Z,0.00
2019-02-20T07:18:00.038Z,0.00
2019-02-20T07:19:00.038Z,0.00
2019-02-20T07:20:00.023Z,0.00
2019-02-20T07:21:00.032Z,0.00
2019-02-20T07:22:00.086Z,0.00
2019-02-20T07:23:00.020Z,0.00
2019-02-20T07:23:59.983Z,0.00
2019-02-20T07:25:03.208Z,0.00
2019-02-20T07:25:59.997Z,0.00
2019-02-20T07:26:59.940Z,0.00
2019-02-20T07:27:59.949Z,0.00
2019-02-20T07:28:59.936Z,0.00
2019-02-20T07:29:59.913Z,0.00
2019-02-20T07:30:59.901Z,0.00
2019-02-20T07:31:59.914Z,0.00
2019-02-20T07:32:59.892Z,0.00
2019-02-20T07:33:59.883Z,0.00
2019-02-20T07:34:59.865Z,0.00
2019-02-20T07:35:59.844Z,0.00
2019-02-20T07:36:59.869Z,0.00
2019-02-20T07:37:59.819Z,0.00
2019-02-20T07:38:59.832Z,0.00
2019-02-20T07:39:59.798Z,0.00
2019-02-20T07:40:59.787Z,0.00
2019-02-20T07:41:59.829Z,0.00
2019-02-20T07:42:59.790Z,0.00
2019-02-20T07:43:59.761Z,0.00
2019-02-20T07:44:59.759Z,0.00
2019-02-20T07:45:59.736Z,0.00
2019-02-20T07:46:59.718Z,0.00
2019-02-20T07:47:59.752Z,0.00
2019-02-20T07:48:59.700Z,0.00
2019-02-20T07:49:59.694Z,0.00
2019-02-20T07:50:59.676Z,0.00
2019-02-20T07:51:59.696Z,0.00
2019-02-20T07:52:59.678Z,0.00
2019-02-20T07:53:59.641Z,0.00
2019-02-20T07:54:59.631Z,0.00
2019-02-20T07:55:59.620Z,0.00
2019-02-20T07:56:59.641Z,0.00
2019-02-20T07:57:59.630Z,0.00
2019-02-20T07:58:59.590Z,0.00
2019-02-20T07:59:59.577Z,0.00
2019-02-20T08:00:59.582Z,0.00
2019-02-20T08:01:59.557Z,0.00
2019-02-20T08:02:59.575Z,0.00
2019-02-20T08:03:59.538Z,0.00
2019-02-20T08:05:00.327Z,0.00
2019-02-20T08:05:59.530Z,0.00
2019-02-20T08:06:59.526Z,0.00
2019-02-20T08:07:59.534Z,0.00
2019-02-20T08:08:59.483Z,0.00
2019-02-20T08:09:59.470Z,0.00
2019-02-20T08:10:59.477Z,0.00
2019-02-20T08:11:59.493Z,0.00
2019-02-20T08:12:59.483Z,0.00
2019-02-20T08:13:59.435Z,0.00
2019-02-20T08:14:59.460Z,0.00
2019-02-20T08:15:59.433Z,0.00
2019-02-20T08:16:59.391Z,0.00
2019-02-20T08:17:59.406Z,0.00
2019-02-20T08:18:59.402Z,0.00
2019-02-20T08:19:59.366Z,0.00
2019-02-20T08:20:59.343Z,0.00
2019-02-20T08:21:59.371Z,0.00
2019-02-20T08:22:59.326Z,0.00
2019-02-20T08:23:59.348Z,0.00
2019-02-20T08:24:59.306Z,0.00
2019-02-20T08:25:59.755Z,0.00
2019-02-20T08:26:59.285Z,0.00
2019-02-20T08:27:59.289Z,0.00
2019-02-20T08:28:59.307Z,0.00
2019-02-20T08:29:59.314Z,0.00
2019-02-20T08:30:59.246Z,0.00
2019-02-20T08:31:59.228Z,0.00
2019-02-20T08:32:59.222Z,0.00
2019-02-20T08:33:59.206Z,0.00
2019-02-20T08:34:59.198Z,0.00
2019-02-20T08:35:59.212Z,0.00
2019-02-20T08:36:59.175Z,0.00
2019-02-20T08:37:59.162Z,0.00
2019-02-20T08:38:59.183Z,208.00
2019-02-20T08:39:59.165Z,244.00
2019-02-20T08:40:59.162Z,264.00
2019-02-20T08:41:59.163Z,284.00
2019-02-20T08:42:59.108Z,300.00
2019-02-20T08:43:59.118Z,312.00
2019-02-20T08:44:59.088Z,316.00
2019-02-20T08:45:59.099Z,324.00
2019-02-20T08:46:59.065Z,324.00
2019-02-20T08:47:59.072Z,0.00
2019-02-20T08:48:59.041Z,0.00
2019-02-20T08:49:59.034Z,0.00
2019-02-20T08:50:59.059Z,0.00
2019-02-20T08:51:59.007Z,0.00
2019-02-20T08:52:58.996Z,284.00
2019-02-20T08:53:58.989Z,300.00
2019-02-20T08:54:58.993Z,312.00
2019-02-20T08:55:58.971Z,316.00
2019-02-20T08:56:58.982Z,324.00
2019-02-20T08:57:58.938Z,0.00
2019-02-20T08:58:58.937Z,316.00
2019-02-20T08:59:58.917Z,324.00
2019-02-20T09:00:58.961Z,324.00
2019-02-20T09:01:58.895Z,324.00
2019-02-20T09:02:58.883Z,324.00
2019-02-20T09:03:58.884Z,324.00
2019-02-20T09:04:58.866Z,0.00
2019-02-20T09:05:58.857Z,0.00
2019-02-20T09:06:58.867Z,0.00
2019-02-20T09:07:58.834Z,312.00
2019-02-20T09:08:58.846Z,320.00
2019-02-20T09:09:58.822Z,320.00
2019-02-20T09:10:58.833Z,324.00
2019-02-20T09:11:58.788Z,324.00
2019-02-20T09:12:58.774Z,0.00
2019-02-20T09:13:58.760Z,0.00
2019-02-20T09:14:58.751Z,0.00
2019-02-20T09:15:58.734Z,0.00
2019-02-20T09:16:58.767Z,0.00
2019-02-20T09:17:58.730Z,0.00
2019-02-20T09:18:58.753Z,0.00
2019-02-20T09:19:58.707Z,0.00
2019-02-20T09:20:58.710Z,0.00
2019-02-20T09:21:58.679Z,0.00
2019-02-20T09:22:58.663Z,232.00
2019-02-20T09:23:58.648Z,276.00
2019-02-20T09:24:58.644Z,304.00
2019-02-20T09:25:58.665Z,312.00
2019-02-20T09:26:58.619Z,316.00
2019-02-20T09:27:58.616Z,320.00
2019-02-20T09:28:58.600Z,320.00
2019-02-20T09:29:58.586Z,324.00
2019-02-20T09:30:58.567Z,324.00
2019-02-20T09:31:58.615Z,324.00
2019-02-20T09:32:59.134Z,324.00
2019-02-20T09:33:58.535Z,0.00
2019-02-20T09:34:58.525Z,0.00
2019-02-20T09:35:58.539Z,0.00
2019-02-20T09:36:58.503Z,0.00
2019-02-20T09:37:58.509Z,0.00
2019-02-20T09:38:58.482Z,0.00
2019-02-20T09:39:58.502Z,0.00
2019-02-20T09:40:58.459Z,0.00
2019-02-20T09:41:58.446Z,0.00
2019-02-20T09:42:58.456Z,0.00
2019-02-20T09:43:58.431Z,0.00
2019-02-20T09:44:58.431Z,0.00
2019-02-20T09:45:58.405Z,0.00
2019-02-20T09:46:58.392Z,0.00
2019-02-20T09:47:58.412Z,0.00
2019-02-20T09:48:58.373Z,0.00
2019-02-20T09:49:58.366Z,0.00
2019-02-20T09:50:58.363Z,0.00
2019-02-20T09:51:58.333Z,0.00
2019-02-20T09:52:58.369Z,0.00
2019-02-20T09:53:58.314Z,0.00
2019-02-20T09:54:58.303Z,0.00
2019-02-20T09:55:58.327Z,0.00
2019-02-20T09:56:58.294Z,0.00
2019-02-20T09:57:58.304Z,0.00
2019-02-20T09:58:58.268Z,0.00
2019-02-20T09:59:58.245Z,0.00
2019-02-20T10:00:58.248Z,0.00
2019-02-20T10:01:58.245Z,0.00
2019-02-20T10:02:58.251Z,0.00
2019-02-20T10:03:59.496Z,0.00
2019-02-20T10:04:58.196Z,0.00
2019-02-20T10:05:58.180Z,0.00
2019-02-20T10:06:58.189Z,0.00
2019-02-20T10:07:58.181Z,0.00
2019-02-20T10:08:58.144Z,0.00
2019-02-20T10:09:58.140Z,0.00
2019-02-20T10:10:58.150Z,0.00
2019-02-20T10:11:58.125Z,0.00
2019-02-20T10:12:58.141Z,0.00
2019-02-20T10:13:58.092Z,0.00
2019-02-20T10:14:58.078Z,0.00
2019-02-20T10:15:58.067Z,0.00
2019-02-20T10:16:58.061Z,0.00
2019-02-20T10:17:58.083Z,0.00
2019-02-20T10:18:58.115Z,0.00
2019-02-20T10:19:58.024Z,144.00
2019-02-20T10:20:58.013Z,236.00
2019-02-20T10:21:58.009Z,284.00
2019-02-20T10:22:57.999Z,300.00
2019-02-20T10:23:58.050Z,308.00
2019-02-20T10:24:57.982Z,312.00
2019-02-20T10:26:00.912Z,316.00
2019-02-20T10:27:00.548Z,320.00
2019-02-20T10:27:57.937Z,320.00
2019-02-20T10:28:57.927Z,324.00
2019-02-20T10:29:57.950Z,324.00
2019-02-20T10:30:57.909Z,324.00
2019-02-20T10:31:57.906Z,324.00
2019-02-20T10:32:57.883Z,324.00
2019-02-20T10:33:57.874Z,324.00
2019-02-20T10:34:57.890Z,324.00
2019-02-20T10:35:57.879Z,320.00
2019-02-20T10:36:57.847Z,320.00
2019-02-20T10:37:57.842Z,324.00
2019-02-20T10:38:57.819Z,320.00
2019-02-20T10:39:57.899Z,320.00
2019-02-20T10:40:57.806Z,320.00
2019-02-20T10:41:57.782Z,320.00
2019-02-20T10:42:57.773Z,320.00
2019-02-20T10:43:57.770Z,320.00
2019-02-20T10:44:57.752Z,316.00
2019-02-20T10:45:57.777Z,316.00
2019-02-20T10:46:57.729Z,320.00
2019-02-20T10:47:57.733Z,316.00
2019-02-20T10:48:57.722Z,316.00
2019-02-20T10:49:57.719Z,316.00
2019-02-20T10:50:57.741Z,316.00
2019-02-20T10:51:57.814Z,308.00
2019-02-20T10:52:57.665Z,312.00
2019-02-20T10:53:57.688Z,312.00
2019-02-20T10:54:58.100Z,308.00
2019-02-20T10:55:57.653Z,308.00
2019-02-20T10:56:57.654Z,308.00
2019-02-20T10:57:57.603Z,312.00
2019-02-20T10:58:57.599Z,308.00
2019-02-20T10:59:57.607Z,308.00
2019-02-20T11:00:57.597Z,304.00
2019-02-20T11:01:57.565Z,304.00
2019-02-20T11:02:57.627Z,308.00
2019-02-20T11:03:57.592Z,308.00
2019-02-20T11:04:57.523Z,308.00
2019-02-20T11:05:57.540Z,308.00
2019-02-20T11:06:57.508Z,308.00
2019-02-20T11:07:57.534Z,304.00
2019-02-20T11:08:57.491Z,308.00
2019-02-20T11:09:57.486Z,304.00
2019-02-20T11:10:57.465Z,308.00
2019-02-20T11:11:57.456Z,308.00
2019-02-20T11:12:57.484Z,304.00
2019-02-20T11:13:57.472Z,308.00
2019-02-20T11:14:57.427Z,304.00
2019-02-20T11:15:58.895Z,304.00
2019-02-20T11:16:57.395Z,304.00
2019-02-20T11:17:57.432Z,304.00
2019-02-20T11:18:57.386Z,308.00
2019-02-20T11:19:57.380Z,304.00
2019-02-20T11:20:57.348Z,304.00
2019-02-20T11:21:57.341Z,308.00
2019-02-20T11:22:57.326Z,308.00
2019-02-20T11:23:57.365Z,308.00
2019-02-20T11:24:57.308Z,308.00
2019-02-20T11:25:57.293Z,308.00
2019-02-20T11:26:57.281Z,308.00
2019-02-20T11:27:57.272Z,304.00
2019-02-20T11:28:57.296Z,308.00
2019-02-20T11:29:57.250Z,308.00
2019-02-20T11:30:57.246Z,308.00
2019-02-20T11:31:57.226Z,308.00
2019-02-20T11:32:57.225Z,304.00
2019-02-20T11:33:57.229Z,304.00
2019-02-20T11:34:57.192Z,304.00
2019-02-20T11:35:57.184Z,304.00
2019-02-20T11:36:57.176Z,304.00
2019-02-20T11:37:57.214Z,304.00
2019-02-20T11:38:57.180Z,304.00
2019-02-20T11:39:57.138Z,304.00
2019-02-20T11:40:57.127Z,304.00
2019-02-20T11:41:57.118Z,304.00
2019-02-20T11:42:57.110Z,304.00
2019-02-20T11:43:57.134Z,304.00
2019-02-20T11:44:57.111Z,304.00
2019-02-20T11:45:57.072Z,304.00
2019-02-20T11:46:57.059Z,304.00
2019-02-20T11:47:57.096Z,304.00
2019-02-20T11:48:57.077Z,304.00
2019-02-20T11:49:57.029Z,304.00
2019-02-20T11:50:57.023Z,304.00
2019-02-20T11:51:57.009Z,304.00
2019-02-20T11:52:57.010Z,308.00
2019-02-20T11:53:57.003Z,308.00
2019-02-20T11:54:57.244Z,308.00
2019-02-20T11:55:56.990Z,308.00
2019-02-20T11:56:57.015Z,308.00
2019-02-20T11:58:00.827Z,308.00
2019-02-20T11:58:56.964Z,308.00
2019-02-20T11:59:56.947Z,308.00
2019-02-20T12:00:56.952Z,308.00
2019-02-20T12:01:56.904Z,308.00
2019-02-20T12:02:56.889Z,308.00
2019-02-20T12:03:56.888Z,308.00
2019-02-20T12:04:56.917Z,308.00
2019-02-20T12:05:56.863Z,308.00
2019-02-20T12:06:56.919Z,308.00
2019-02-20T12:07:56.829Z,308.00
2019-02-20T12:08:56.822Z,304.00
2019-02-20T12:09:56.857Z,304.00
2019-02-20T12:10:56.832Z,304.00
2019-02-20T12:11:56.805Z,304.00
2019-02-20T12:12:56.789Z,304.00
2019-02-20T12:13:56.767Z,308.00
2019-02-20T12:14:56.775Z,304.00
2019-02-20T12:15:56.774Z,308.00
2019-02-20T12:16:56.746Z,304.00
2019-02-20T12:17:56.735Z,304.00
2019-02-20T12:18:56.715Z,304.00
2019-02-20T12:19:56.711Z,308.00
2019-02-20T12:20:56.743Z,308.00
2019-02-20T12:21:56.680Z,304.00
2019-02-20T12:22:56.672Z,308.00
2019-02-20T12:23:56.663Z,308.00
2019-02-20T12:24:56.661Z,308.00
2019-02-20T12:25:56.683Z,308.00
2019-02-20T12:26:56.655Z,308.00
2019-02-20T12:27:56.615Z,308.00
2019-02-20T12:28:56.603Z,304.00
2019-02-20T12:29:56.600Z,308.00
2019-02-20T12:30:56.605Z,308.00
2019-02-20T12:31:56.601Z,308.00
2019-02-20T12:32:56.561Z,304.00
2019-02-20T12:33:56.586Z,308.00
2019-02-20T12:34:56.543Z,304.00
2019-02-20T12:35:56.570Z,304.00
2019-02-20T12:36:56.551Z,304.00
2019-02-20T12:37:56.571Z,300.00
2019-02-20T12:38:56.511Z,248.00
2019-02-20T12:39:56.503Z,268.00
2019-02-20T12:40:56.515Z,200.00
2019-02-20T12:41:56.476Z,304.00
2019-02-20T12:42:56.498Z,308.00
2019-02-20T12:43:56.445Z,304.00
2019-02-20T12:44:56.435Z,304.00
2019-02-20T12:45:56.446Z,304.00
2019-02-20T12:46:56.442Z,304.00
2019-02-20T12:47:56.443Z,300.00
2019-02-20T12:48:56.409Z,304.00
2019-02-20T12:49:56.383Z,308.00
2019-02-20T12:50:56.373Z,304.00
2019-02-20T12:51:56.362Z,308.00
2019-02-20T12:52:56.381Z,304.00
2019-02-20T12:53:56.331Z,304.00
2019-02-20T12:54:56.319Z,308.00
2019-02-20T12:55:56.319Z,304.00
2019-02-20T12:56:56.303Z,304.00
2019-02-20T12:57:56.296Z,308.00
2019-02-20T12:58:56.317Z,308.00
2019-02-20T12:59:56.280Z,308.00
2019-02-20T13:00:56.269Z,308.00
2019-02-20T13:01:56.249Z,308.00
2019-02-20T13:02:56.231Z,308.00
2019-02-20T13:03:56.253Z,308.00